Terminal Aerodrome Forecast
Issued by NWS Wilmington, OH

Home | Current Version | Previous Version | Text Only | Print | Product List | Glossary On
Versions: 1 2 3 4 5 6 7 8 9 10 11 12 13 14 15 16 17 18 19
000
FTUS41 KILN 041100 RRA
TAFDAY
TAF
KDAY 041142Z 0412/0512 31008KT P6SM SCT022 OVC080
      TEMPO 0412/0416 BKN022
     FM042000 33014KT 2SM -SN OVC015
     FM050100 34011KT P6SM SCT020 OVC120=

USA.gov is the U.S. government's official web portal to all federal, state and local government web resources and services.